METAR Data
IDs: Format: Raw Decoded Include TAF

Data at: 0315 UTC 25 Feb 2021

KSMO 250306Z AUTO 19005KT 1/2SM FG VV001 11/11 A3000 RMK AO2 T01110106